Grider Field
KPBF : now visible

Airfield :











YOU CAN JOIN US ON...

 
LOGIN :

Register | Disclaimer

   EN    FR    IT 

 









Legend :    VFR   Marginal VFR   IFR   Intensive IFR   Very Intensive IFR
Visi :
Ceiling :
>= 8 km
>= 3000ft
5 to 8 km
1000 to 3000 ft
1500m to 5 km
500 to 1000 ft
800 to 1500m
200 to 500 ft
< 800m
< 200 ft
Symbols :   Thunderstorms  Fog  Heavy snow  Heavy precipitations  Wind > 20 kt






- Airport Elevation : 206 ft


KPBF - Grider Field

CURRENT METAR :
  • 170053Z AUTO 16005KT 10SM CLR 32/22 A2988 RMK AO2 SLP115 T03170217

EXPIRED METARs :
  • 162353Z AUTO 15007KT 10SM CLR 34/21 A2989 RMK AO2 SLP118 T03390211 10361 20339 55002
  • 162253Z AUTO 15009KT 10SM CLR 35/21 A2988 RMK AO2 SLP115 T03500206
  • 162153Z AUTO 14009KT 10SM CLR 36/21 A2988 RMK AO2 SLP116 T03560206
  • 162053Z AUTO 15009KT 10SM FEW070 36/19 A2989 RMK AO2 SLP120 T03560194 56018

TAF KPBF
Valid from the 17 at 00:00 until the 18 at 00:00 UTC


162339Z 1700/1724 16006KT P6SM BKN250
FM171200 17008KT P6SM BKN050 BKN250
FM171600 16009KT P6SM VCTS BKN040CB BKN100
KZME FIR / North America



MET'MAP, your aeronautical weather chart ! - Copyright ORBIFLY December 2007 - Disclaimer

ORBIFLY MET'MAP TEAM :

Programming & Development : Alexandra Zaïnal
Original concept : Baudouin d'Aumeries
Technical & hardware support : Manuel Goepfert
Assistance : Marc-Olivier Méhu




SOURCES & CREDITS :

   NOAA       Earth
Advisory